VOI340 MMMX-MMBT
Flight info
| Callsign | VOI340 |
|---|---|
| Flight time | 0h 50m |
| Altitude | 31000 |
| Route | TEVOS2B TEVOS UT115 HUX |
| Aircraft | A320/M-SDE3FGHIRWY/LB1 |
Departure
| Time | 2026-04-24 03:27 |
|---|---|
| Airport | Mexico City Benito Juárez International Airport (MMMX) |
Arrival
| Time | 2026-04-24 04:17 |
|---|---|
| Airport | Bahías de Huatulco International Airport (MMBT) |
| Time | Latitude | Longitude | Altitude | Speed | Heading |
|---|---|---|---|---|---|
| 2026-04-24 02:58 | 19.43370 | -99.08386 | 7303 ft | 0 kts | 329° |
| 2026-04-24 03:16 | 19.43368 | -99.08385 | 7284 ft | 2 kts | 329° |
| 2026-04-24 03:16 | 19.43346 | -99.08371 | 7303 ft | 4 kts | 332° |
| 2026-04-24 03:17 | 19.43321 | -99.08358 | 7303 ft | 4 kts | 338° |
| 2026-04-24 03:17 | 19.43296 | -99.08351 | 7303 ft | 4 kts | 4° |
| 2026-04-24 03:17 | 19.43279 | -99.08356 | 7303 ft | 0 kts | 59° |
| 2026-04-24 03:20 | 19.43285 | -99.08347 | 7303 ft | 4 kts | 59° |
| 2026-04-24 03:20 | 19.43303 | -99.08314 | 7303 ft | 6 kts | 59° |
| 2026-04-24 03:21 | 19.43332 | -99.08264 | 7303 ft | 10 kts | 59° |
| 2026-04-24 03:21 | 19.43372 | -99.08183 | 7303 ft | 14 kts | 64° |
| 2026-04-24 03:21 | 19.43426 | -99.08082 | 7303 ft | 18 kts | 52° |
| 2026-04-24 03:21 | 19.43498 | -99.07967 | 7303 ft | 19 kts | 59° |
| 2026-04-24 03:22 | 19.43566 | -99.07845 | 7303 ft | 19 kts | 59° |
| 2026-04-24 03:22 | 19.43636 | -99.07720 | 7303 ft | 20 kts | 59° |
| 2026-04-24 03:22 | 19.43707 | -99.07593 | 7303 ft | 21 kts | 59° |
| 2026-04-24 03:22 | 19.43782 | -99.07460 | 7303 ft | 21 kts | 59° |
| 2026-04-24 03:23 | 19.43858 | -99.07325 | 7303 ft | 22 kts | 59° |
| 2026-04-24 03:23 | 19.43935 | -99.07188 | 7303 ft | 22 kts | 59° |
| 2026-04-24 03:23 | 19.44015 | -99.07046 | 7303 ft | 23 kts | 59° |
| 2026-04-24 03:23 | 19.44097 | -99.06902 | 7303 ft | 23 kts | 59° |
| 2026-04-24 03:24 | 19.44179 | -99.06755 | 7303 ft | 24 kts | 59° |
| 2026-04-24 03:24 | 19.44264 | -99.06603 | 7303 ft | 24 kts | 59° |
| 2026-04-24 03:24 | 19.44349 | -99.06452 | 7303 ft | 13 kts | 59° |
| 2026-04-24 03:24 | 19.44382 | -99.06394 | 7303 ft | 9 kts | 59° |
| 2026-04-24 03:25 | 19.44406 | -99.06332 | 7303 ft | 9 kts | 91° |
| 2026-04-24 03:25 | 19.44362 | -99.06285 | 7303 ft | 10 kts | 149° |
| 2026-04-24 03:25 | 19.44317 | -99.06274 | 7302 ft | 0 kts | 241° |
| 2026-04-24 03:25 | 19.44316 | -99.06276 | 7302 ft | 0 kts | 241° |
| 2026-04-24 03:26 | 19.44289 | -99.06328 | 7303 ft | 33 kts | 240° |
| 2026-04-24 03:26 | 19.44052 | -99.06751 | 7304 ft | 99 kts | 239° |
| 2026-04-24 03:26 | 19.43606 | -99.07550 | 7304 ft | 150 kts | 239° |
| 2026-04-24 03:26 | 19.42997 | -99.08636 | 7408 ft | 184 kts | 239° |
| 2026-04-24 03:27 | 19.42359 | -99.09785 | 8315 ft | 183 kts | 239° |
| 2026-04-24 03:27 | 19.41697 | -99.10951 | 9041 ft | 184 kts | 238° |
| 2026-04-24 03:27 | 19.41004 | -99.12156 | 9207 ft | 199 kts | 239° |
| 2026-04-24 03:27 | 19.40261 | -99.13458 | 9370 ft | 213 kts | 240° |
| 2026-04-24 03:28 | 19.39489 | -99.14830 | 9571 ft | 227 kts | 241° |
| 2026-04-24 03:28 | 19.38629 | -99.16334 | 9880 ft | 243 kts | 235° |
| 2026-04-24 03:28 | 19.37290 | -99.17419 | 10404 ft | 254 kts | 199° |
| 2026-04-24 03:28 | 19.35517 | -99.17434 | 10905 ft | 262 kts | 161° |
| 2026-04-24 03:29 | 19.34011 | -99.16335 | 11430 ft | 267 kts | 130° |
| 2026-04-24 03:29 | 19.32941 | -99.14744 | 12012 ft | 269 kts | 120° |
| 2026-04-24 03:29 | 19.32023 | -99.13010 | 12659 ft | 270 kts | 117° |
| 2026-04-24 03:29 | 19.31085 | -99.11270 | 13313 ft | 272 kts | 119° |
| 2026-04-24 03:30 | 19.30078 | -99.09582 | 13981 ft | 273 kts | 121° |
| 2026-04-24 03:30 | 19.29018 | -99.07888 | 14547 ft | 276 kts | 122° |
| 2026-04-24 03:30 | 19.27945 | -99.06189 | 15102 ft | 278 kts | 122° |
| 2026-04-24 03:30 | 19.26880 | -99.04495 | 15659 ft | 280 kts | 123° |
| 2026-04-24 03:31 | 19.25502 | -99.02996 | 15993 ft | 293 kts | 147° |
| 2026-04-24 03:31 | 19.23687 | -99.01840 | 16125 ft | 313 kts | 149° |
| 2026-04-24 03:31 | 19.21723 | -99.00743 | 16255 ft | 331 kts | 160° |
| 2026-04-24 03:31 | 19.19413 | -99.00227 | 16401 ft | 347 kts | 174° |
| 2026-04-24 03:32 | 19.16945 | -98.99951 | 16506 ft | 364 kts | 174° |
| 2026-04-24 03:32 | 19.14391 | -98.99693 | 16601 ft | 380 kts | 175° |
| 2026-04-24 03:32 | 19.11688 | -98.99432 | 16697 ft | 395 kts | 175° |
| 2026-04-24 03:32 | 19.08905 | -98.99164 | 17006 ft | 403 kts | 175° |
| 2026-04-24 03:33 | 19.06129 | -98.98891 | 17476 ft | 406 kts | 175° |
| 2026-04-24 03:33 | 19.03300 | -98.98603 | 17967 ft | 409 kts | 174° |
| 2026-04-24 03:33 | 19.00448 | -98.98307 | 18432 ft | 412 kts | 174° |
| 2026-04-24 03:33 | 18.97609 | -98.98013 | 18858 ft | 414 kts | 174° |
| 2026-04-24 03:34 | 18.94713 | -98.97713 | 19277 ft | 417 kts | 175° |
| 2026-04-24 03:34 | 18.91832 | -98.97414 | 19687 ft | 420 kts | 175° |
| 2026-04-24 03:34 | 18.88887 | -98.97110 | 20105 ft | 423 kts | 175° |
| 2026-04-24 03:34 | 18.85938 | -98.96804 | 20509 ft | 426 kts | 175° |
| 2026-04-24 03:35 | 18.82999 | -98.96497 | 20895 ft | 429 kts | 175° |
| 2026-04-24 03:35 | 18.79991 | -98.96185 | 21274 ft | 432 kts | 175° |
| 2026-04-24 03:35 | 18.77008 | -98.95877 | 21659 ft | 435 kts | 175° |
| 2026-04-24 03:35 | 18.73967 | -98.95564 | 22036 ft | 438 kts | 175° |
| 2026-04-24 03:36 | 18.70907 | -98.95249 | 22402 ft | 441 kts | 175° |
| 2026-04-24 03:36 | 18.67877 | -98.94937 | 22759 ft | 444 kts | 175° |
| 2026-04-24 03:36 | 18.64787 | -98.94619 | 23099 ft | 446 kts | 175° |
| 2026-04-24 03:36 | 18.61675 | -98.94299 | 23455 ft | 449 kts | 175° |
| 2026-04-24 03:37 | 18.58581 | -98.93981 | 23737 ft | 452 kts | 175° |
| 2026-04-24 03:37 | 18.55430 | -98.93659 | 24035 ft | 454 kts | 175° |
| 2026-04-24 03:37 | 18.52264 | -98.93337 | 24328 ft | 456 kts | 175° |
| 2026-04-24 03:37 | 18.49135 | -98.93019 | 24627 ft | 458 kts | 175° |
| 2026-04-24 03:38 | 18.45933 | -98.92617 | 24920 ft | 461 kts | 170° |
| 2026-04-24 03:38 | 18.42846 | -98.91738 | 25205 ft | 464 kts | 160° |
| 2026-04-24 03:38 | 18.39891 | -98.90310 | 25485 ft | 466 kts | 150° |
| 2026-04-24 03:38 | 18.37172 | -98.88466 | 25763 ft | 469 kts | 146° |
| 2026-04-24 03:39 | 18.34439 | -98.86541 | 26037 ft | 471 kts | 146° |
| 2026-04-24 03:39 | 18.31734 | -98.84649 | 26324 ft | 473 kts | 146° |
| 2026-04-24 03:39 | 18.28968 | -98.82723 | 26601 ft | 475 kts | 146° |
| 2026-04-24 03:39 | 18.26218 | -98.80813 | 26883 ft | 477 kts | 146° |
| 2026-04-24 03:40 | 18.23439 | -98.78880 | 27177 ft | 479 kts | 146° |
| 2026-04-24 03:40 | 18.20641 | -98.76933 | 27460 ft | 482 kts | 146° |
| 2026-04-24 03:40 | 18.17859 | -98.74997 | 27769 ft | 483 kts | 146° |
| 2026-04-24 03:40 | 18.15042 | -98.73037 | 28084 ft | 484 kts | 146° |
| 2026-04-24 03:41 | 18.12218 | -98.71068 | 28517 ft | 483 kts | 146° |
| 2026-04-24 03:41 | 18.09450 | -98.69137 | 28931 ft | 483 kts | 146° |
| 2026-04-24 03:41 | 18.06636 | -98.67181 | 29359 ft | 482 kts | 146° |
| 2026-04-24 03:41 | 18.03823 | -98.65228 | 29797 ft | 482 kts | 146° |
| 2026-04-24 03:42 | 18.01059 | -98.63308 | 30212 ft | 481 kts | 146° |
| 2026-04-24 03:42 | 17.98258 | -98.61361 | 30613 ft | 480 kts | 146° |
| 2026-04-24 03:42 | 17.95491 | -98.59438 | 30875 ft | 480 kts | 146° |
| 2026-04-24 03:43 | 17.89877 | -98.55539 | 30961 ft | 486 kts | 146° |
| 2026-04-24 03:43 | 17.84249 | -98.51636 | 30969 ft | 487 kts | 146° |
| 2026-04-24 03:44 | 17.78569 | -98.47702 | 30980 ft | 487 kts | 146° |
| 2026-04-24 03:44 | 17.72929 | -98.43797 | 30991 ft | 487 kts | 146° |
| 2026-04-24 03:45 | 17.67278 | -98.39878 | 31008 ft | 487 kts | 146° |
| 2026-04-24 03:45 | 17.61598 | -98.35940 | 31025 ft | 487 kts | 146° |
| 2026-04-24 03:46 | 17.55952 | -98.32044 | 31044 ft | 487 kts | 146° |
| 2026-04-24 03:46 | 17.50310 | -98.28163 | 31051 ft | 487 kts | 146° |
| 2026-04-24 03:47 | 17.44628 | -98.24250 | 31056 ft | 487 kts | 146° |
| 2026-04-24 03:47 | 17.38979 | -98.20364 | 31063 ft | 487 kts | 146° |
| 2026-04-24 03:48 | 17.34258 | -98.17111 | 31061 ft | 487 kts | 146° |
| 2026-04-24 03:48 | 17.28588 | -98.13208 | 31074 ft | 487 kts | 146° |
| 2026-04-24 03:49 | 17.22954 | -98.09331 | 31067 ft | 487 kts | 145° |
| 2026-04-24 03:49 | 17.17271 | -98.05420 | 31067 ft | 487 kts | 146° |
| 2026-04-24 03:50 | 17.11654 | -98.01564 | 31066 ft | 487 kts | 146° |
| 2026-04-24 03:50 | 17.05986 | -97.97678 | 31065 ft | 487 kts | 146° |
| 2026-04-24 03:51 | 17.00302 | -97.93780 | 31065 ft | 487 kts | 146° |
| 2026-04-24 03:51 | 16.94661 | -97.89913 | 31059 ft | 486 kts | 146° |
| 2026-04-24 03:52 | 16.88987 | -97.86016 | 31054 ft | 486 kts | 144° |
| 2026-04-24 03:52 | 16.83515 | -97.81935 | 31050 ft | 485 kts | 142° |
| 2026-04-24 03:53 | 16.78139 | -97.77656 | 31051 ft | 484 kts | 141° |
| 2026-04-24 03:53 | 16.72776 | -97.73427 | 31049 ft | 484 kts | 142° |
| 2026-04-24 03:54 | 16.67378 | -97.69267 | 31036 ft | 484 kts | 142° |
| 2026-04-24 03:54 | 16.61920 | -97.65104 | 31035 ft | 484 kts | 142° |
| 2026-04-24 03:55 | 16.56508 | -97.60964 | 31032 ft | 484 kts | 142° |
| 2026-04-24 03:55 | 16.51095 | -97.56801 | 30813 ft | 484 kts | 142° |
| 2026-04-24 03:55 | 16.48366 | -97.54706 | 30580 ft | 484 kts | 142° |
| 2026-04-24 03:56 | 16.45655 | -97.52623 | 30351 ft | 484 kts | 142° |
| 2026-04-24 03:56 | 16.42969 | -97.50556 | 30123 ft | 485 kts | 142° |
| 2026-04-24 03:56 | 16.40248 | -97.48463 | 29860 ft | 485 kts | 142° |
| 2026-04-24 03:56 | 16.37525 | -97.46375 | 29590 ft | 485 kts | 142° |
| 2026-04-24 03:57 | 16.34799 | -97.44286 | 29318 ft | 486 kts | 142° |
| 2026-04-24 03:57 | 16.32099 | -97.42221 | 29048 ft | 486 kts | 143° |
| 2026-04-24 03:57 | 16.29372 | -97.40136 | 28795 ft | 486 kts | 142° |
| 2026-04-24 03:57 | 16.26660 | -97.38058 | 28544 ft | 486 kts | 142° |
| 2026-04-24 03:58 | 16.23928 | -97.35964 | 28276 ft | 486 kts | 142° |
| 2026-04-24 03:58 | 16.21202 | -97.33876 | 28020 ft | 486 kts | 143° |
| 2026-04-24 03:58 | 16.18470 | -97.31786 | 27772 ft | 485 kts | 143° |
| 2026-04-24 03:58 | 16.15779 | -97.29733 | 27507 ft | 483 kts | 143° |
| 2026-04-24 03:59 | 16.13097 | -97.27686 | 26821 ft | 479 kts | 143° |
| 2026-04-24 03:59 | 16.10403 | -97.25628 | 26085 ft | 477 kts | 143° |
| 2026-04-24 03:59 | 16.07728 | -97.23591 | 25361 ft | 474 kts | 143° |
| 2026-04-24 03:59 | 16.05068 | -97.21565 | 24651 ft | 471 kts | 143° |
| 2026-04-24 04:00 | 16.02455 | -97.19571 | 23950 ft | 469 kts | 143° |
| 2026-04-24 04:00 | 15.99822 | -97.17560 | 23177 ft | 467 kts | 143° |
| 2026-04-24 04:00 | 15.97207 | -97.15568 | 22471 ft | 462 kts | 143° |
| 2026-04-24 04:00 | 15.94650 | -97.13622 | 21793 ft | 457 kts | 143° |
| 2026-04-24 04:01 | 15.92102 | -97.11648 | 21114 ft | 451 kts | 139° |
| 2026-04-24 04:01 | 15.89937 | -97.09373 | 20471 ft | 445 kts | 127° |
| 2026-04-24 04:01 | 15.88266 | -97.06688 | 19846 ft | 438 kts | 115° |
| 2026-04-24 04:01 | 15.87165 | -97.03745 | 19255 ft | 432 kts | 104° |
| 2026-04-24 04:02 | 15.86648 | -97.00728 | 18770 ft | 424 kts | 96° |
| 2026-04-24 04:02 | 15.86303 | -96.97718 | 18208 ft | 421 kts | 96° |
| 2026-04-24 04:02 | 15.85947 | -96.94701 | 17599 ft | 417 kts | 96° |
| 2026-04-24 04:02 | 15.85590 | -96.91715 | 17038 ft | 413 kts | 96° |
| 2026-04-24 04:03 | 15.85242 | -96.88801 | 16460 ft | 409 kts | 96° |
| 2026-04-24 04:03 | 15.84895 | -96.85863 | 15875 ft | 405 kts | 96° |
| 2026-04-24 04:03 | 15.84557 | -96.82968 | 15275 ft | 402 kts | 96° |
| 2026-04-24 04:03 | 15.84219 | -96.80088 | 14673 ft | 399 kts | 96° |
| 2026-04-24 04:04 | 15.83886 | -96.77270 | 14074 ft | 396 kts | 96° |
| 2026-04-24 04:04 | 15.83549 | -96.74424 | 13407 ft | 394 kts | 97° |
| 2026-04-24 04:04 | 15.83214 | -96.71603 | 12773 ft | 390 kts | 96° |
| 2026-04-24 04:04 | 15.82885 | -96.68845 | 12172 ft | 385 kts | 96° |
| 2026-04-24 04:05 | 15.82555 | -96.66087 | 11557 ft | 381 kts | 96° |
| 2026-04-24 04:05 | 15.82231 | -96.63388 | 10958 ft | 378 kts | 96° |
| 2026-04-24 04:05 | 15.81912 | -96.60721 | 10775 ft | 363 kts | 97° |
| 2026-04-24 04:05 | 15.81811 | -96.59881 | 10745 ft | 357 kts | 96° |
| 2026-04-24 04:06 | 15.81531 | -96.57700 | 10644 ft | 344 kts | 97° |
| 2026-04-24 04:06 | 15.81236 | -96.55277 | 10521 ft | 331 kts | 96° |
| 2026-04-24 04:06 | 15.80969 | -96.52973 | 10405 ft | 320 kts | 96° |
| 2026-04-24 04:06 | 15.80710 | -96.50708 | 10285 ft | 309 kts | 96° |
| 2026-04-24 04:07 | 15.80457 | -96.48519 | 10094 ft | 300 kts | 96° |
| 2026-04-24 04:07 | 15.80207 | -96.46404 | 9856 ft | 300 kts | 96° |
| 2026-04-24 04:07 | 15.79951 | -96.44248 | 9410 ft | 300 kts | 97° |
| 2026-04-24 04:07 | 15.79694 | -96.42091 | 9013 ft | 301 kts | 97° |
| 2026-04-24 04:08 | 15.79436 | -96.39937 | 8636 ft | 296 kts | 97° |
| 2026-04-24 04:08 | 15.79185 | -96.37842 | 8233 ft | 294 kts | 97° |
| 2026-04-24 04:08 | 15.78932 | -96.35736 | 7856 ft | 293 kts | 97° |
| 2026-04-24 04:08 | 15.78677 | -96.33624 | 7468 ft | 293 kts | 97° |
| 2026-04-24 04:09 | 15.78427 | -96.31563 | 7085 ft | 286 kts | 97° |
| 2026-04-24 04:09 | 15.78183 | -96.29531 | 6711 ft | 278 kts | 97° |
| 2026-04-24 04:09 | 15.77949 | -96.27579 | 6348 ft | 272 kts | 97° |
| 2026-04-24 04:09 | 15.77664 | -96.25633 | 5975 ft | 271 kts | 104° |
| 2026-04-24 04:10 | 15.77220 | -96.23759 | 5711 ft | 267 kts | 104° |
| 2026-04-24 04:10 | 15.76785 | -96.21912 | 5439 ft | 257 kts | 104° |
| 2026-04-24 04:10 | 15.76370 | -96.20142 | 5172 ft | 247 kts | 104° |
| 2026-04-24 04:11 | 15.75593 | -96.16811 | 4697 ft | 231 kts | 105° |
| 2026-04-24 04:11 | 15.75221 | -96.15214 | 4447 ft | 228 kts | 105° |
| 2026-04-24 04:11 | 15.74849 | -96.13613 | 4199 ft | 227 kts | 105° |
| 2026-04-24 04:11 | 15.74479 | -96.12022 | 3944 ft | 225 kts | 105° |
| 2026-04-24 04:12 | 15.74172 | -96.10453 | 3735 ft | 222 kts | 91° |
| 2026-04-24 04:12 | 15.74552 | -96.08938 | 3617 ft | 217 kts | 56° |
| 2026-04-24 04:12 | 15.75647 | -96.07914 | 3504 ft | 212 kts | 21° |
| 2026-04-24 04:12 | 15.77061 | -96.07674 | 3383 ft | 205 kts | 348° |
| 2026-04-24 04:13 | 15.78367 | -96.08193 | 3274 ft | 200 kts | 319° |
| 2026-04-24 04:13 | 15.79216 | -96.09284 | 3158 ft | 197 kts | 292° |
| 2026-04-24 04:13 | 15.79507 | -96.10624 | 3037 ft | 183 kts | 274° |
| 2026-04-24 04:13 | 15.79606 | -96.11875 | 2873 ft | 164 kts | 274° |
| 2026-04-24 04:14 | 15.79683 | -96.13016 | 2584 ft | 154 kts | 271° |
| 2026-04-24 04:14 | 15.79636 | -96.14086 | 2409 ft | 145 kts | 261° |
| 2026-04-24 04:14 | 15.79494 | -96.15105 | 2242 ft | 139 kts | 263° |
| 2026-04-24 04:14 | 15.79341 | -96.16089 | 2092 ft | 140 kts | 260° |
| 2026-04-24 04:15 | 15.79194 | -96.17087 | 1959 ft | 138 kts | 264° |
| 2026-04-24 04:15 | 15.79028 | -96.18066 | 1823 ft | 139 kts | 257° |
| 2026-04-24 04:15 | 15.78831 | -96.19046 | 1644 ft | 137 kts | 260° |
| 2026-04-24 04:15 | 15.78646 | -96.20021 | 1460 ft | 137 kts | 259° |
| 2026-04-24 04:16 | 15.78497 | -96.20989 | 1309 ft | 137 kts | 260° |
| 2026-04-24 04:16 | 15.78318 | -96.21960 | 1082 ft | 136 kts | 257° |
| 2026-04-24 04:16 | 15.78143 | -96.22914 | 903 ft | 135 kts | 259° |
| 2026-04-24 04:16 | 15.77952 | -96.23880 | 719 ft | 135 kts | 260° |
| 2026-04-24 04:17 | 15.77784 | -96.24846 | 538 ft | 136 kts | 259° |
| 2026-04-24 04:17 | 15.77631 | -96.25696 | 513 ft | 93 kts | 258° |
| 2026-04-24 04:17 | 15.77562 | -96.26071 | 510 ft | 30 kts | 259° |
| 2026-04-24 04:17 | 15.77521 | -96.26286 | 510 ft | 31 kts | 259° |
| 2026-04-24 04:18 | 15.77495 | -96.26429 | 509 ft | 8 kts | 259° |
| 2026-04-24 04:18 | 15.77451 | -96.26449 | 510 ft | 9 kts | 144° |
| 2026-04-24 04:18 | 15.77427 | -96.26386 | 510 ft | 10 kts | 109° |
| 2026-04-24 04:18 | 15.77401 | -96.26312 | 511 ft | 12 kts | 110° |
| 2026-04-24 04:19 | 15.77372 | -96.26228 | 511 ft | 13 kts | 110° |
| 2026-04-24 04:19 | 15.77340 | -96.26137 | 513 ft | 8 kts | 110° |
| 2026-04-24 04:19 | 15.77331 | -96.26071 | 510 ft | 10 kts | 78° |
| 2026-04-24 04:19 | 15.77346 | -96.25992 | 511 ft | 12 kts | 78° |
| 2026-04-24 04:20 | 15.77356 | -96.25937 | 511 ft | 4 kts | 79° |
| 2026-04-24 04:20 | 15.77352 | -96.25906 | 511 ft | 5 kts | 130° |
| 2026-04-24 04:20 | 15.77313 | -96.25900 | 511 ft | 7 kts | 170° |
| 2026-04-24 04:20 | 15.77295 | -96.25897 | 509 ft | 4 kts | 169° |
| 2026-04-24 04:21 | 15.77284 | -96.25895 | 509 ft | 1 kts | 169° |
| 2026-04-24 04:21 | 15.77280 | -96.25894 | 509 ft | 0 kts | 169° |